Time;durP1;ratioP1;P1;durP2;ratioP2;P2;SDS_P1;SDS_P2;PMS_P1;PMS_P2;Temp;Humidity;BMP_temperature;BMP_pressure;BME280_temperature;BME280_humidity;BME280_pressure;Samples;Min_cycle;Max_cycle;Signal;HPM_P1;HPM_P2
2023/07/29 00:00:22;;;;;;;6.95;2.60;;;;;;;23.18;35.58;99389.09;3108074;28;20439;-77
2023/07/29 00:01:54;;;;;;;5.03;2.38;;;;;;;23.16;35.39;99391.09;3107756;28;20519;-76
2023/07/29 00:03:26;;;;;;;4.35;2.25;;;;;;;23.11;35.55;99388.09;3108007;28;20092;-76
2023/07/29 00:04:58;;;;;;;7.05;2.45;;;;;;;23.11;35.81;99391.56;3107634;28;20042;-81
2023/07/29 00:06:30;;;;;;;3.88;2.22;;;;;;;23.08;35.63;99383.09;3107733;28;20526;-83
2023/07/29 00:08:00;;;;;;;5.82;2.30;;;;;;;23.06;35.82;99385.06;3105301;28;20053;-80
2023/07/29 00:09:32;;;;;;;7.85;2.03;;;;;;;23.03;35.79;99386.22;3095957;28;20050;-75
2023/07/29 00:11:03;;;;;;;4.88;2.40;;;;;;;23.02;36.01;99379.25;3095356;28;20061;-78
2023/07/29 00:12:35;;;;;;;4.85;2.00;;;;;;;23.01;35.89;99374.09;3095944;28;20062;-77
2023/07/29 00:14:06;;;;;;;6.90;2.50;;;;;;;22.98;35.96;99377.06;3108126;28;20046;-77
2023/07/29 00:15:37;;;;;;;3.03;1.75;;;;;;;22.94;36.16;99368.56;3102912;28;20074;-77
2023/07/29 00:17:08;;;;;;;3.35;2.17;;;;;;;22.94;36.06;99371.22;3095395;28;20055;-77
2023/07/29 00:18:40;;;;;;;6.03;2.53;;;;;;;22.90;36.20;99376.00;3105554;28;20469;-77
2023/07/29 00:20:12;;;;;;;4.25;2.30;;;;;;;22.91;36.58;99372.34;3108253;28;20054;-78
2023/07/29 00:21:44;;;;;;;4.07;2.15;;;;;;;22.89;36.58;99373.50;3107512;28;20065;-77
2023/07/29 00:23:15;;;;;;;7.35;2.33;;;;;;;22.90;36.24;99380.50;3102999;28;20050;-77
2023/07/29 00:24:53;;;;;;;5.50;2.22;;;;;;;22.91;36.37;99374.19;3095779;28;20061;-77
2023/07/29 00:26:28;;;;;;;3.58;2.13;;;;;;;22.88;36.55;99380.63;3096085;28;20054;-75
2023/07/29 00:28:00;;;;;;;5.32;2.30;;;;;;;22.84;36.38;99386.44;3103034;28;20061;-74
2023/07/29 00:29:32;;;;;;;4.82;2.00;;;;;;;22.82;36.67;99388.41;3107469;28;20049;-74
2023/07/29 00:31:03;;;;;;;4.43;2.33;;;;;;;22.82;36.66;99397.19;3107692;28;20042;-74
2023/07/29 00:32:36;;;;;;;2.78;1.95;;;;;;;22.80;36.67;99393.88;3108034;28;20049;-73
2023/07/29 00:34:08;;;;;;;;;;;;;;;22.60;36.88;99387.13;3107830;28;20065;-73
2023/07/29 00:35:40;;;;;;;5.15;1.80;;;;;;;;;;3109817;28;19929;-73
2023/07/29 00:37:12;;;;;;;5.50;2.28;;;;;;;22.69;36.88;99388.84;3109552;28;20056;-73
2023/07/29 00:38:42;;;;;;;6.55;2.22;;;;;;;22.69;37.23;99394.16;3101653;28;20085;-73
2023/07/29 00:40:20;;;;;;;4.07;1.90;;;;;;;22.63;37.19;99386.81;3098735;28;20046;-73
2023/07/29 00:41:51;;;;;;;4.70;2.13;;;;;;;22.67;37.15;99394.28;3109591;28;20500;-73
2023/07/29 00:43:23;;;;;;;5.72;2.13;;;;;;;;;;3109497;28;20066;-72
2023/07/29 00:44:53;;;;;;;4.63;2.22;;;;;;;;;;3109446;28;20057;-71
2023/07/29 00:46:25;;;;;;;4.45;2.15;;;;;;;22.62;37.49;99393.09;3098758;28;20081;-71
2023/07/29 00:47:57;;;;;;;5.93;2.22;;;;;;;22.57;37.51;99396.25;3108758;28;20050;-71
2023/07/29 00:49:29;;;;;;;3.10;1.63;;;;;;;22.55;37.53;99400.03;3109450;28;20057;-71
2023/07/29 00:51:01;;;;;;;4.80;2.50;;;;;;;22.55;37.82;99386.75;3109374;28;20049;-71
2023/07/29 00:52:33;;;;;;;7.60;2.38;;;;;;;22.55;37.97;99395.56;3106933;28;20064;-72
2023/07/29 00:54:04;;;;;;;5.40;2.47;;;;;;;22.56;37.97;99393.72;3097987;28;20054;-71
2023/07/29 00:55:36;;;;;;;3.35;2.28;;;;;;;22.56;38.15;99385.75;3097708;28;20053;-71
2023/07/29 00:57:08;;;;;;;9.40;2.78;;;;;;;22.56;38.07;99391.06;3103803;28;20058;-73
2023/07/29 00:58:41;;;;;;;5.77;2.23;;;;;;;22.49;38.12;99389.03;3109446;28;20533;-75
2023/07/29 01:00:12;;;;;;;6.43;2.08;;;;;;;22.48;38.45;99382.09;3109564;28;20045;-76
2023/07/29 01:01:45;;;;;;;7.20;2.05;;;;;;;22.47;38.30;99380.41;3109207;28;20455;-73
2023/07/29 01:03:16;;;;;;;5.80;2.15;;;;;;;22.40;38.52;99376.72;3109644;28;20050;-73
2023/07/29 01:04:53;;;;;;;3.83;2.33;;;;;;;22.42;38.50;99373.88;3105691;28;20060;-73
2023/07/29 01:06:33;;;;;;;4.88;1.70;;;;;;;22.42;38.69;99380.06;3109615;28;20052;-74
2023/07/29 01:08:17;;;;;;;4.13;2.05;;;;;;;22.41;38.30;99375.72;3106604;28;20058;-73
2023/07/29 01:09:55;;;;;;;2.72;1.80;;;;;;;22.40;38.36;99382.03;3101307;28;20451;-74
2023/07/29 01:11:40;;;;;;;3.72;2.28;;;;;;;22.34;38.46;99380.00;3109122;28;20522;-74
2023/07/29 01:13:17;;;;;;;4.40;1.92;;;;;;;22.30;38.86;99380.44;3109635;28;20053;-74
2023/07/29 01:15:00;;;;;;;4.30;2.42;;;;;;;22.23;38.64;99380.22;3109488;28;20061;-73
2023/07/29 01:16:39;;;;;;;3.08;1.98;;;;;;;22.16;38.88;99380.00;3097474;28;20432;-75
2023/07/29 01:18:19;;;;;;;3.55;1.80;;;;;;;22.15;39.19;99382.78;3103591;28;20432;-74
2023/07/29 01:20:01;;;;;;;3.78;1.90;;;;;;;22.15;39.24;99374.81;3109228;28;20527;-74
2023/07/29 01:21:36;;;;;;;5.57;2.33;;;;;;;22.15;39.29;99380.13;3108859;28;20042;-74
2023/07/29 01:23:06;;;;;;;6.15;3.00;;;;;;;22.13;39.39;99377.66;3105945;28;20520;-74
2023/07/29 01:24:40;;;;;;;5.25;2.40;;;;;;;22.17;39.26;99378.19;3103421;28;20057;-74
2023/07/29 01:26:10;;;;;;;5.63;2.72;;;;;;;22.15;39.24;99380.97;3109319;28;20076;-74
2023/07/29 01:27:44;;;;;;;7.85;2.75;;;;;;;22.18;39.09;99383.38;3109034;28;20050;-74
2023/07/29 01:29:15;;;;;;;11.45;2.42;;;;;;;22.20;39.26;99385.84;3109263;28;20380;-72
2023/07/29 01:30:50;;;;;;;4.93;2.30;;;;;;;22.14;39.49;99383.78;3109212;28;20045;-72
2023/07/29 01:32:28;;;;;;;5.88;2.55;;;;;;;22.04;39.49;99374.09;3109240;28;20060;-72
2023/07/29 01:34:07;;;;;;;7.72;2.78;;;;;;;21.97;39.58;99374.84;3109255;28;20219;-73
2023/07/29 01:35:42;;;;;;;6.07;2.90;;;;;;;21.92;39.91;99390.41;3105982;28;20050;-72
2023/07/29 01:37:20;;;;;;;4.75;3.03;;;;;;;21.89;39.87;99380.94;3099898;28;20050;-70
2023/07/29 01:38:54;;;;;;;5.38;3.05;;;;;;;21.85;40.16;99386.66;3102808;28;20053;-69
2023/07/29 01:40:28;;;;;;;7.07;3.00;;;;;;;21.82;40.04;99385.16;3104410;28;20085;-70
2023/07/29 01:42:00;;;;;;;7.25;2.83;;;;;;;21.79;40.30;99390.75;3098146;28;20047;-71
2023/07/29 01:43:31;;;;;;;7.35;3.20;;;;;;;21.79;40.28;99388.09;3109024;28;20062;-71
2023/07/29 01:45:03;;;;;;;8.38;3.03;;;;;;;21.79;40.22;99388.94;3108166;28;20140;-71
2023/07/29 01:46:34;;;;;;;7.22;3.20;;;;;;;21.77;40.46;99388.28;3108411;28;20080;-72
2023/07/29 01:48:06;;;;;;;8.52;3.42;;;;;;;21.78;40.50;99386.44;3109168;28;20057;-72
2023/07/29 01:49:37;;;;;;;6.47;3.35;;;;;;;21.74;40.46;99377.97;3103361;28;20054;-71
2023/07/29 01:51:09;;;;;;;9.20;3.78;;;;;;;21.72;40.41;99384.41;3096681;28;20108;-72
2023/07/29 01:52:40;;;;;;;8.02;3.83;;;;;;;21.67;40.66;99390.16;3105681;28;20081;-72
2023/07/29 01:54:11;;;;;;;4.85;3.15;;;;;;;21.66;40.77;99396.44;3096588;28;20050;-73
2023/07/29 01:55:44;;;;;;;6.03;3.30;;;;;;;21.61;40.64;99377.50;3100595;28;20471;-72
2023/07/29 01:57:16;;;;;;;7.28;3.55;;;;;;;21.64;40.92;99392.28;3104076;28;20164;-71
2023/07/29 01:58:47;;;;;;;9.85;3.33;;;;;;;21.66;40.66;99392.97;3108802;28;20072;-71
2023/07/29 02:00:19;;;;;;;11.52;3.40;;;;;;;21.71;40.93;99395.97;3108236;28;20072;-76
2023/07/29 02:01:50;;;;;;;8.00;3.70;;;;;;;21.72;40.76;99393.19;3101951;28;20042;-75
2023/07/29 02:03:22;;;;;;;5.25;3.05;;;;;;;21.74;41.03;99393.03;3108879;28;20319;-77
2023/07/29 02:04:53;;;;;;;11.43;3.78;;;;;;;21.77;41.06;99392.75;3108711;28;20534;-78
2023/07/29 02:06:25;;;;;;;8.40;3.83;;;;;;;21.79;40.95;99391.59;3108771;28;20056;-78
2023/07/29 02:07:56;;;;;;;4.88;3.00;;;;;;;21.80;40.83;99401.22;3102301;28;20060;-79
2023/07/29 02:09:27;;;;;;;8.00;3.53;;;;;;;21.80;41.10;99395.09;3096796;28;20073;-79
2023/07/29 02:11:01;;;;;;;9.23;3.90;;;;;;;21.77;41.09;99393.56;3097080;28;20054;-83
2023/07/29 02:12:32;;;;;;;;;;;;;;;21.62;41.04;99399.53;3109472;28;20053;-83
2023/07/29 02:14:03;;;;;;;11.23;3.35;;;;;;;21.67;41.12;99402.56;3108734;28;19984;-83
2023/07/29 02:15:35;;;;;;;15.50;3.35;;;;;;;21.74;41.21;99403.63;3104289;28;20089;-84
2023/07/29 02:17:06;;;;;;;6.22;3.20;;;;;;;21.74;41.02;99404.47;3096893;28;20109;-83
2023/07/29 02:18:38;;;;;;;10.75;3.78;;;;;;;21.78;40.97;99415.59;3106506;28;20808;-82
2023/07/29 02:20:10;;;;;;;5.18;3.10;;;;;;;21.81;41.12;99415.31;3108831;28;20065;-78
2023/07/29 02:21:42;;;;;;;8.90;3.80;;;;;;;21.80;41.30;99418.94;3108263;28;20046;-73
2023/07/29 02:23:13;;;;;;;5.97;3.55;;;;;;;21.79;41.31;99423.41;3096597;28;20068;-72
2023/07/29 02:24:45;;;;;;;7.28;3.60;;;;;;;21.76;41.44;99412.25;3096502;28;20054;-72
2023/07/29 02:26:17;;;;;;;10.50;3.63;;;;;;;21.74;41.21;99409.78;3102384;28;20045;-72
2023/07/29 02:27:49;;;;;;;5.03;2.78;;;;;;;21.71;41.18;99412.72;3108479;28;20092;-72
2023/07/29 02:29:21;;;;;;;9.50;3.65;;;;;;;21.69;41.19;99408.56;3108529;28;20062;-72
2023/07/29 02:31:11;;;;;;;7.70;3.15;;;;;;;21.66;41.33;99407.03;3108407;28;20129;-72
2023/07/29 02:32:43;;;;;;;4.43;3.10;;;;;;;21.58;41.65;99410.44;3108524;28;20629;-73
2023/07/29 02:34:14;;;;;;;7.30;3.35;;;;;;;21.58;41.66;99406.94;3108456;28;20056;-72
2023/07/29 02:35:46;;;;;;;5.55;3.05;;;;;;;21.56;41.73;99409.75;3108503;28;20439;-72
2023/07/29 02:37:16;;;;;;;4.63;3.35;;;;;;;21.55;41.61;99410.72;3100496;28;20104;-72
2023/07/29 02:38:48;;;;;;;7.68;3.60;;;;;;;21.53;41.81;99409.19;3095814;28;20046;-72
2023/07/29 02:40:20;;;;;;;7.55;3.33;;;;;;;21.50;42.04;99407.72;3095748;28;20050;-73
2023/07/29 02:41:52;;;;;;;7.13;3.30;;;;;;;21.49;41.88;99415.78;3097802;28;20051;-72
2023/07/29 02:43:24;;;;;;;6.03;3.88;;;;;;;21.48;41.90;99414.13;3107897;28;20486;-72
2023/07/29 02:44:55;;;;;;;4.82;3.30;;;;;;;21.50;42.02;99422.75;3107823;28;20066;-72
2023/07/29 02:46:27;;;;;;;8.63;3.70;;;;;;;21.49;42.27;99413.97;3098327;28;20475;-73
2023/07/29 02:47:58;;;;;;;7.03;3.13;;;;;;;21.49;42.16;99419.28;3107944;28;20062;-72
2023/07/29 02:49:30;;;;;;;7.82;4.45;;;;;;;21.47;42.01;99421.22;3108439;28;20061;-74
2023/07/29 02:51:00;;;;;;;7.10;3.30;;;;;;;21.47;42.36;99423.88;3106936;28;20042;-74
2023/07/29 02:52:32;;;;;;;5.85;3.50;;;;;;;21.47;42.06;99423.88;3105473;28;20184;-74
2023/07/29 02:54:03;;;;;;;6.15;3.70;;;;;;;21.42;42.41;99417.38;3097645;28;20219;-75
2023/07/29 02:55:35;;;;;;;7.60;3.47;;;;;;;21.37;42.39;99412.50;3102668;28;20111;-74
2023/07/29 02:57:07;;;;;;;6.95;3.60;;;;;;;21.38;42.58;99410.69;3101764;28;20046;-74
2023/07/29 02:58:39;;;;;;;6.18;3.63;;;;;;;21.37;42.62;99411.69;3102530;28;20069;-74
2023/07/29 03:00:11;;;;;;;5.05;3.15;;;;;;;21.36;42.68;99413.50;3100900;28;20141;-72
2023/07/29 03:01:43;;;;;;;8.70;3.28;;;;;;;21.34;42.75;99416.25;3108128;28;20046;-74
2023/07/29 03:03:14;;;;;;;12.98;3.50;;;;;;;21.32;42.82;99420.03;3108118;28;20045;-74
2023/07/29 03:04:46;;;;;;;7.20;3.00;;;;;;;21.34;42.67;99416.25;3108093;28;20141;-74
2023/07/29 03:06:18;;;;;;;7.82;3.25;;;;;;;21.36;42.79;99416.16;3101096;28;20050;-73
2023/07/29 03:07:49;;;;;;;6.40;3.13;;;;;;;21.37;42.77;99414.34;3096497;28;20058;-74
2023/07/29 03:09:20;;;;;;;10.93;3.50;;;;;;;21.37;42.56;99419.63;3096113;28;20643;-74
2023/07/29 03:10:52;;;;;;;7.78;3.30;;;;;;;21.36;42.68;99421.44;3096436;28;20064;-74
2023/07/29 03:12:24;;;;;;;5.15;3.17;;;;;;;21.39;42.78;99423.81;3108124;28;20417;-75
2023/07/29 03:13:56;;;;;;;4.82;3.25;;;;;;;21.38;42.67;99423.94;3108220;28;20152;-75
2023/07/29 03:15:27;;;;;;;5.32;3.65;;;;;;;21.34;42.90;99423.38;3104138;28;20065;-73
2023/07/29 03:16:59;;;;;;;6.13;3.35;;;;;;;21.31;43.17;99415.72;3105935;28;20070;-81
2023/07/29 03:18:30;;;;;;;10.30;3.10;;;;;;;21.32;43.14;99422.69;3108061;28;20042;-80
2023/07/29 03:20:01;;;;;;;6.68;3.10;;;;;;;21.31;42.91;99421.84;3107808;28;20642;-80
2023/07/29 03:21:33;;;;;;;5.97;3.70;;;;;;;21.28;42.93;99424.78;3096357;28;20053;-76
2023/07/29 03:23:04;;;;;;;5.15;3.10;;;;;;;21.27;43.18;99422.31;3100065;28;20050;-74
2023/07/29 03:24:36;;;;;;;6.15;3.22;;;;;;;21.25;43.23;99427.72;3095774;28;20050;-74
2023/07/29 03:26:10;;;;;;;4.32;3.05;;;;;;;21.20;43.24;99429.16;3101371;28;20057;-76
2023/07/29 03:27:42;;;;;;;8.57;2.88;;;;;;;21.16;43.25;99427.78;3107916;28;20129;-73
2023/07/29 03:29:14;;;;;;;9.05;4.20;;;;;;;21.16;43.16;99433.09;3107117;28;20771;-76
2023/07/29 03:30:45;;;;;;;6.22;3.25;;;;;;;21.17;43.34;99434.75;3108039;28;20061;-76
2023/07/29 03:32:17;;;;;;;5.05;2.72;;;;;;;21.12;43.14;99436.03;3107898;28;20049;-76
2023/07/29 03:33:48;;;;;;;19.58;10.05;;;;;;;21.15;43.16;99440.19;3107783;28;20435;-72
2023/07/29 03:35:20;;;;;;;6.28;3.20;;;;;;;21.12;43.14;99436.03;3095589;28;20054;-72
2023/07/29 03:36:52;;;;;;;8.25;3.15;;;;;;;21.10;43.06;99437.97;3097477;28;20455;-74
2023/07/29 03:38:23;;;;;;;9.55;3.30;;;;;;;21.08;43.24;99434.63;3102441;28;20601;-72
2023/07/29 03:39:55;;;;;;;5.97;3.10;;;;;;;21.16;42.98;99438.38;3095724;28;20057;-69
2023/07/29 03:41:27;;;;;;;4.07;2.70;;;;;;;21.14;43.13;99438.50;3095788;28;20460;-73
2023/07/29 03:42:59;;;;;;;3.92;2.80;;;;;;;21.18;42.97;99439.91;3095424;28;20060;-73
2023/07/29 03:44:31;;;;;;;5.03;2.65;;;;;;;21.14;43.10;99441.97;3106936;28;20054;-73
2023/07/29 03:46:03;;;;;;;7.27;3.00;;;;;;;21.16;43.03;99446.31;3098290;28;20137;-73
2023/07/29 03:47:35;;;;;;;4.88;2.97;;;;;;;21.16;42.99;99448.97;3105163;28;20054;-73
2023/07/29 03:49:06;;;;;;;3.83;2.60;;;;;;;21.14;43.18;99452.56;3108019;28;20516;-73
2023/07/29 03:50:38;;;;;;;3.00;2.63;;;;;;;21.16;43.08;99448.97;3099887;28;20057;-70
2023/07/29 03:52:09;;;;;;;10.25;5.47;;;;;;;21.14;43.04;99455.22;3106628;28;20038;-69
2023/07/29 03:53:40;;;;;;;13.90;7.10;;;;;;;21.14;43.20;99454.41;3098999;28;20589;-69
2023/07/29 03:55:11;;;;;;;8.98;4.88;;;;;;;21.13;43.23;99452.75;3100867;28;20056;-70
2023/07/29 03:56:43;;;;;;;12.30;4.53;;;;;;;21.09;43.25;99454.84;3107812;28;20060;-66
2023/07/29 03:58:16;;;;;;;7.28;3.22;;;;;;;21.11;43.19;99459.97;3106356;28;20081;-71
2023/07/29 03:59:47;;;;;;;48.30;27.37;;;;;;;21.10;43.11;99460.97;3107518;28;20104;-70
2023/07/29 04:01:21;;;;;;;22.25;14.32;;;;;;;21.14;43.05;99462.34;3107938;28;20409;-71
2023/07/29 04:02:52;;;;;;;14.98;9.82;;;;;;;21.11;43.18;99459.97;3107466;28;20060;-67
2023/07/29 04:04:24;;;;;;;8.32;3.42;;;;;;;21.13;43.25;99469.44;3101466;28;20507;-65
2023/07/29 04:05:55;;;;;;;14.18;3.92;;;;;;;21.14;43.24;99471.09;3095434;28;20058;-66
2023/07/29 04:07:27;;;;;;;8.70;3.15;;;;;;;21.13;43.37;99465.97;3105732;28;20062;-67
2023/07/29 04:08:58;;;;;;;5.40;2.53;;;;;;;21.10;43.39;99469.75;3097506;28;20058;-69
2023/07/29 04:10:31;;;;;;;6.25;2.63;;;;;;;21.03;43.56;99466.03;3106084;28;20065;-72
2023/07/29 04:12:59;;;;;;;3.90;2.78;;;;;;;20.93;43.58;99472.31;3106339;28;20832;-68
2023/07/29 04:14:31;;;;;;;4.45;2.20;;;;;;;20.87;44.05;99468.41;3108053;28;20483;-71
2023/07/29 04:16:03;;;;;;;5.35;2.22;;;;;;;20.90;43.98;99460.19;3100945;28;20058;-72
2023/07/29 04:17:34;;;;;;;4.60;2.45;;;;;;;20.91;44.02;99469.78;3106721;28;20420;-71
2023/07/29 04:19:06;;;;;;;6.85;2.78;;;;;;;20.87;44.05;99477.19;3105425;28;20057;-71
2023/07/29 04:20:37;;;;;;;5.43;2.58;;;;;;;20.84;44.29;99476.66;3096785;28;20081;-71
2023/07/29 04:22:09;;;;;;;6.82;3.08;;;;;;;20.81;44.50;99469.00;3104349;28;20566;-71
2023/07/29 04:23:40;;;;;;;10.32;2.67;;;;;;;20.82;44.36;99476.81;3101716;28;20077;-71
2023/07/29 04:25:12;;;;;;;5.40;3.25;;;;;;;20.79;44.48;99474.41;3103135;28;20620;-71
2023/07/29 04:26:44;;;;;;;6.03;2.92;;;;;;;20.76;44.57;99480.00;3109276;28;20160;-71
2023/07/29 04:28:16;;;;;;;6.90;2.70;;;;;;;20.72;44.75;99475.16;3104300;28;20167;-71
2023/07/29 04:29:48;;;;;;;5.00;2.50;;;;;;;20.70;44.90;99477.09;3109190;28;20101;-71
2023/07/29 04:31:20;;;;;;;4.82;2.35;;;;;;;20.72;44.79;99480.44;3102485;28;20065;-70
2023/07/29 04:32:51;;;;;;;5.30;2.60;;;;;;;20.70;44.95;99482.38;3109436;28;20499;-70
2023/07/29 04:34:23;;;;;;;7.07;2.80;;;;;;;20.64;45.03;99481.97;3104115;28;20111;-70
2023/07/29 04:35:54;;;;;;;7.95;3.05;;;;;;;20.57;45.17;99480.88;3097990;28;20054;-70
2023/07/29 04:37:26;;;;;;;5.22;2.80;;;;;;;20.54;45.35;99483.78;3109634;28;20550;-70
2023/07/29 04:38:58;;;;;;;5.32;2.90;;;;;;;20.54;45.59;99482.97;3099015;28;20055;-70
2023/07/29 04:40:29;;;;;;;7.13;3.28;;;;;;;20.54;45.50;99481.16;3097498;28;20519;-71
2023/07/29 04:42:01;;;;;;;10.65;3.08;;;;;;;20.53;45.72;99479.50;3097164;28;20136;-71
2023/07/29 04:43:32;;;;;;;9.38;3.03;;;;;;;20.45;45.81;99490.72;3107095;28;20108;-71
2023/07/29 04:45:07;;;;;;;5.28;2.83;;;;;;;20.48;45.57;99488.78;3107764;28;20049;-71
2023/07/29 04:46:38;;;;;;;6.00;2.80;;;;;;;20.50;45.91;99482.38;3106214;28;20538;-71
2023/07/29 04:48:10;;;;;;;6.22;3.03;;;;;;;20.52;45.62;99477.81;3109205;28;20060;-71
2023/07/29 04:49:41;;;;;;;4.60;2.42;;;;;;;20.53;45.70;99475.97;3097457;28;20050;-71
2023/07/29 04:51:12;;;;;;;6.70;3.13;;;;;;;20.58;45.70;99473.75;3097402;28;20046;-71
2023/07/29 04:52:44;;;;;;;7.10;3.13;;;;;;;20.62;45.64;99475.16;3107405;28;20056;-70
2023/07/29 04:54:15;;;;;;;8.07;2.60;;;;;;;20.67;45.47;99473.78;3109177;28;20053;-70
2023/07/29 04:55:47;;;;;;;6.18;3.10;;;;;;;20.69;45.63;99470.97;3109263;28;20054;-71
2023/07/29 04:57:18;;;;;;;5.22;2.58;;;;;;;20.74;45.48;99475.84;3109291;28;20041;-71
2023/07/29 04:58:50;;;;;;;8.38;2.88;;;;;;;20.79;45.36;99479.72;3109497;28;20050;-70
2023/07/29 05:00:22;;;;;;;11.15;3.38;;;;;;;20.85;45.45;99487.09;3109531;28;20061;-70
2023/07/29 05:01:54;;;;;;;6.25;2.83;;;;;;;20.90;45.23;99486.66;3108571;28;20424;-71
2023/07/29 05:03:24;;;;;;;6.68;3.15;;;;;;;20.94;45.02;99476.63;3104838;28;20046;-71
2023/07/29 05:04:56;;;;;;;5.93;3.15;;;;;;;20.97;45.00;99485.13;3097198;28;20056;-70
2023/07/29 05:06:27;;;;;;;8.77;3.10;;;;;;;21.00;45.03;99482.19;3100567;28;20682;-71
2023/07/29 05:07:59;;;;;;;8.32;3.58;;;;;;;21.05;45.12;99482.56;3107462;28;20171;-71
2023/07/29 05:09:30;;;;;;;9.50;3.33;;;;;;;21.10;44.95;99487.44;3097000;28;20058;-70
2023/07/29 05:11:01;;;;;;;10.35;3.67;;;;;;;21.14;44.98;99494.09;3098400;28;20132;-70
2023/07/29 05:12:33;;;;;;;6.55;3.40;;;;;;;21.16;44.78;99493.97;3109422;28;20448;-70
2023/07/29 05:14:06;;;;;;;8.23;3.50;;;;;;;21.20;44.93;99492.69;3109222;28;20061;-70
2023/07/29 05:15:39;;;;;;;8.43;3.15;;;;;;;21.21;45.07;99492.56;3104229;28;20151;-70
2023/07/29 05:17:10;;;;;;;8.98;3.00;;;;;;;21.27;44.81;99491.16;3096886;28;20465;-69
2023/07/29 05:18:41;;;;;;;14.68;4.28;;;;;;;21.32;44.82;99488.88;3096951;28;20050;-71
2023/07/29 05:20:12;;;;;;;8.48;3.50;;;;;;;21.35;44.60;99491.25;3097335;28;20062;-72
2023/07/29 05:21:44;;;;;;;10.93;3.70;;;;;;;21.37;44.57;99484.03;3104804;28;20099;-70
2023/07/29 05:23:16;;;;;;;8.95;3.70;;;;;;;21.42;44.50;99491.56;3104626;28;20123;-70
2023/07/29 05:24:47;;;;;;;6.65;2.78;;;;;;;21.45;44.35;99496.56;3104463;28;20552;-70
2023/07/29 05:26:19;;;;;;;9.05;3.55;;;;;;;21.47;44.31;99492.75;3108916;28;20069;-70
2023/07/29 05:27:51;;;;;;;6.97;3.20;;;;;;;21.50;44.49;99489.84;3096860;28;20457;-70
2023/07/29 05:29:22;;;;;;;8.38;3.22;;;;;;;21.55;44.37;99487.56;3096842;28;20054;-72
2023/07/29 05:30:55;;;;;;;12.23;3.20;;;;;;;21.61;44.24;99494.09;3101858;28;20049;-69
2023/07/29 05:32:26;;;;;;;8.27;3.20;;;;;;;21.64;44.02;99492.97;3109023;28;20131;-71
2023/07/29 05:33:57;;;;;;;7.47;2.72;;;;;;;21.71;44.11;99494.03;3101591;28;20133;-70
2023/07/29 05:35:28;;;;;;;7.32;2.90;;;;;;;21.79;43.99;99496.78;3096787;28;20054;-71
2023/07/29 05:37:00;;;;;;;8.30;3.20;;;;;;;21.85;43.94;99498.84;3098601;28;20050;-71
2023/07/29 05:38:31;;;;;;;6.70;2.65;;;;;;;21.89;43.68;99491.41;3102291;28;20443;-71
2023/07/29 05:40:03;;;;;;;10.13;3.97;;;;;;;22.00;43.42;99504.47;3107257;28;20053;-72
2023/07/29 05:41:34;;;;;;;11.45;3.70;;;;;;;22.08;43.32;99507.19;3084729;28;20591;-71
2023/07/29 05:43:06;;;;;;;8.80;2.67;;;;;;;22.15;43.26;99502.13;3107622;28;20057;-70
2023/07/29 05:44:37;;;;;;;7.50;2.90;;;;;;;22.18;42.95;99513.31;3108911;28;20273;-71
2023/07/29 05:46:09;;;;;;;5.88;3.40;;;;;;;22.24;42.90;99511.84;3100561;28;20054;-71
2023/07/29 05:47:42;;;;;;;10.38;2.67;;;;;;;22.30;42.68;99510.41;3104932;28;20049;-71
2023/07/29 05:49:13;;;;;;;5.22;2.55;;;;;;;22.30;42.70;99511.25;3096801;28;20050;-72
2023/07/29 05:50:45;;;;;;;6.45;3.05;;;;;;;22.36;42.66;99510.66;3096747;28;20054;-73
2023/07/29 05:52:17;;;;;;;8.45;2.92;;;;;;;22.42;42.64;99507.41;3103628;28;20045;-71
2023/07/29 05:53:48;;;;;;;5.63;2.83;;;;;;;22.46;42.50;99515.88;3100352;28;20108;-71
2023/07/29 05:55:20;;;;;;;5.93;2.60;;;;;;;22.53;42.51;99508.16;3101440;28;20041;-72
2023/07/29 05:56:50;;;;;;;8.70;2.75;;;;;;;22.57;42.31;99512.16;3108908;28;20053;-72
2023/07/29 05:58:22;;;;;;;8.50;3.03;;;;;;;22.62;42.22;99501.91;3108798;28;20046;-71
2023/07/29 05:59:53;;;;;;;9.82;2.88;;;;;;;22.70;42.53;99500.16;3108949;28;20085;-72
2023/07/29 06:01:27;;;;;;;6.00;2.95;;;;;;;22.83;42.01;99502.41;3108583;28;20454;-71
2023/07/29 06:02:58;;;;;;;3.70;2.60;;;;;;;22.91;42.02;99498.97;3102254;28;20050;-72
2023/07/29 06:04:29;;;;;;;5.97;3.17;;;;;;;22.94;41.42;99496.88;3097132;28;20558;-72
2023/07/29 06:06:00;;;;;;;4.75;2.60;;;;;;;23.04;41.53;99493.28;3108716;28;20077;-71
2023/07/29 06:07:33;;;;;;;4.93;2.13;;;;;;;23.15;41.32;99501.81;3108476;28;20054;-72
2023/07/29 06:09:04;;;;;;;9.25;2.45;;;;;;;23.23;41.32;99498.38;3097608;28;20054;-72
2023/07/29 06:10:36;;;;;;;8.23;2.83;;;;;;;23.30;41.13;99496.75;3096588;28;20469;-73
2023/07/29 06:12:08;;;;;;;5.55;2.40;;;;;;;23.37;41.01;99505.75;3106252;28;20081;-73
2023/07/29 06:13:40;;;;;;;4.97;2.13;;;;;;;23.45;40.94;99498.81;3108226;28;20057;-72
2023/07/29 06:15:11;;;;;;;5.57;2.83;;;;;;;23.53;40.36;99504.16;3106912;28;20065;-72
2023/07/29 06:16:44;;;;;;;4.75;2.55;;;;;;;23.61;40.44;99497.06;3096491;28;20085;-72
2023/07/29 06:18:16;;;;;;;3.63;2.42;;;;;;;23.70;40.11;99503.28;3096209;28;20440;-72
2023/07/29 06:19:47;;;;;;;4.15;2.25;;;;;;;23.82;40.00;99501.97;3102096;28;20084;-72
2023/07/29 06:21:19;;;;;;;9.50;2.67;;;;;;;23.92;40.27;99498.34;3108253;28;20511;-72
2023/07/29 06:22:50;;;;;;;6.15;2.60;;;;;;;24.04;40.23;99502.34;3106276;28;20502;-72
2023/07/29 06:24:22;;;;;;;7.80;2.58;;;;;;;24.16;39.70;99501.03;3096307;28;20053;-72
2023/07/29 06:25:53;;;;;;;4.22;2.63;;;;;;;24.28;39.32;99501.56;3099075;28;20115;-71
2023/07/29 06:27:26;;;;;;;5.63;2.53;;;;;;;24.37;39.39;99507.72;3108306;28;20057;-73
2023/07/29 06:28:57;;;;;;;9.20;2.65;;;;;;;24.42;39.28;99500.06;3108331;28;20085;-73
2023/07/29 06:30:28;;;;;;;9.00;2.67;;;;;;;24.54;39.67;99504.09;3105829;28;20092;-72
2023/07/29 06:32:01;;;;;;;5.13;2.60;;;;;;;24.67;39.26;99504.44;3096225;28;20054;-71
2023/07/29 06:33:32;;;;;;;12.65;2.75;;;;;;;24.79;39.21;99494.28;3083999;28;20461;-72
2023/07/29 06:35:04;;;;;;;9.43;2.33;;;;;;;24.89;39.13;99489.59;3107165;28;20075;-72
2023/07/29 06:36:35;;;;;;;8.80;2.47;;;;;;;25.00;38.68;99499.09;3108022;28;20053;-71
2023/07/29 06:38:07;;;;;;;10.35;2.65;;;;;;;25.02;38.18;99491.72;3105097;28;20056;-71
2023/07/29 06:39:38;;;;;;;4.18;2.08;;;;;;;25.02;38.00;99494.41;3095914;28;20050;-71
2023/07/29 06:41:09;;;;;;;5.60;2.88;;;;;;;25.05;37.86;99490.56;3095939;28;20104;-73
2023/07/29 06:42:40;;;;;;;4.68;2.40;;;;;;;25.08;38.13;99491.06;3103241;28;20046;-72
2023/07/29 06:44:12;;;;;;;7.13;2.47;;;;;;;25.12;37.64;99489.72;3107770;28;20056;-71
2023/07/29 06:45:44;;;;;;;4.78;2.60;;;;;;;25.16;37.71;99493.72;3106882;28;20467;-73
2023/07/29 06:47:16;;;;;;;6.13;2.20;;;;;;;25.23;37.32;99490.38;3098426;28;20535;-71
2023/07/29 06:48:48;;;;;;;6.45;2.17;;;;;;;25.26;37.68;99487.38;3100260;28;20069;-72
2023/07/29 06:50:19;;;;;;;3.53;2.20;;;;;;;25.30;37.61;99483.38;3108374;28;20057;-71
2023/07/29 06:51:51;;;;;;;8.40;2.10;;;;;;;25.36;37.35;99490.69;3105270;28;20050;-71
2023/07/29 06:53:21;;;;;;;5.28;2.40;;;;;;;25.44;36.96;99488.00;3102591;28;20038;-70
2023/07/29 06:54:53;;;;;;;4.05;2.42;;;;;;;25.52;37.27;99495.09;3097316;28;20058;-71
2023/07/29 06:56:24;;;;;;;8.23;2.90;;;;;;;25.59;37.11;99496.09;3108241;28;20061;-71
2023/07/29 06:57:56;;;;;;;4.53;2.38;;;;;;;25.65;36.38;99498.91;3108066;28;20119;-71
2023/07/29 06:59:27;;;;;;;9.35;3.10;;;;;;;25.71;36.15;99491.22;3107989;28;20057;-71
2023/07/29 07:00:58;;;;;;;5.35;2.70;;;;;;;25.74;35.96;99497.03;3105946;28;20054;-70
2023/07/29 07:02:31;;;;;;;4.13;2.10;;;;;;;25.80;36.21;99485.66;3096058;28;20057;-73
2023/07/29 07:04:03;;;;;;;3.17;2.10;;;;;;;25.89;36.06;99493.66;3105722;28;20058;-71
2023/07/29 07:05:33;;;;;;;4.13;2.30;;;;;;;25.99;36.01;99497.72;3108056;28;20053;-71
2023/07/29 07:07:06;;;;;;;5.32;1.70;;;;;;;26.06;35.61;99488.03;3107778;28;20123;-71
2023/07/29 07:08:38;;;;;;;4.87;2.50;;;;;;;26.16;35.11;99490.47;3100977;28;20443;-70
2023/07/29 07:10:09;;;;;;;2.90;2.28;;;;;;;26.23;34.95;99488.72;3095638;28;20371;-73
2023/07/29 07:11:41;;;;;;;2.88;2.08;;;;;;;26.31;35.25;99486.00;3102227;28;20053;-73
2023/07/29 07:13:11;;;;;;;4.80;2.33;;;;;;;26.39;35.15;99477.13;3107715;28;20069;-73
2023/07/29 07:14:43;;;;;;;11.20;2.60;;;;;;;26.48;35.06;99476.03;3107937;28;20054;-73